createdAt,value
2017-08-14T05:31:40.978Z,2008
2017-08-14T05:32:06.451Z,2032
2017-08-14T05:32:31.923Z,2060
2017-08-14T05:32:57.402Z,2088
2017-08-14T05:33:22.866Z,2116
2017-08-14T05:33:48.336Z,2132
2017-08-14T05:34:13.799Z,2156
2017-08-14T05:34:39.252Z,2176
2017-08-14T05:35:04.711Z,2192
2017-08-14T05:35:30.209Z,2208
2017-08-14T05:35:55.615Z,2224
2017-08-14T05:36:21.102Z,2236
2017-08-14T05:36:46.559Z,2244
2017-08-14T05:37:12.036Z,2260
2017-08-14T05:37:37.461Z,2272
2017-08-14T05:38:02.885Z,2284
2017-08-14T05:38:28.329Z,2292
2017-08-14T05:38:53.775Z,2236
2017-08-14T05:39:19.253Z,2184
2017-08-14T05:39:44.756Z,2172
2017-08-14T05:40:10.164Z,2216
2017-08-14T05:40:35.617Z,2300
2017-08-14T05:41:01.073Z,2364
2017-08-14T05:41:26.558Z,2364
2017-08-14T05:41:51.983Z,2328
2017-08-14T05:42:17.462Z,2292
2017-08-14T05:42:42.953Z,2280
2017-08-14T05:43:08.432Z,2340
2017-08-14T05:43:33.909Z,2408
2017-08-14T05:43:59.361Z,2480
2017-08-14T05:44:24.787Z,2516
2017-08-14T05:44:50.281Z,2532
2017-08-14T05:45:15.790Z,2536
2017-08-14T05:45:41.213Z,2548
2017-08-14T05:46:06.669Z,2568
2017-08-14T05:46:32.133Z,2584
2017-08-14T05:46:57.591Z,2604
2017-08-14T05:47:23.040Z,2628
2017-08-14T05:47:48.495Z,2648
2017-08-14T05:48:13.958Z,2656
2017-08-14T05:48:39.418Z,2664
2017-08-14T05:49:04.868Z,2684
2017-08-14T05:49:30.300Z,2688
2017-08-14T05:49:55.767Z,2692
2017-08-14T05:50:21.190Z,2720
2017-08-14T05:50:46.659Z,2736
2017-08-14T05:51:12.138Z,2752
2017-08-14T05:51:37.593Z,2768
2017-08-14T05:52:03.050Z,2776
2017-08-14T05:52:28.534Z,2776
2017-08-14T05:52:54.044Z,2752
2017-08-14T05:53:19.480Z,2712
2017-08-14T05:53:44.943Z,2748
2017-08-14T05:54:10.404Z,2800
2017-08-14T05:54:35.878Z,2864
2017-08-14T05:55:01.354Z,2904
2017-08-14T05:55:26.820Z,2920
2017-08-14T05:55:52.267Z,2928
2017-08-14T05:56:17.742Z,2944
2017-08-14T05:56:43.216Z,2960
2017-08-14T05:57:08.651Z,2968
2017-08-14T05:57:34.212Z,2972
2017-08-14T05:57:59.647Z,2968
2017-08-14T05:58:25.108Z,2952
2017-08-14T05:58:50.542Z,2936
2017-08-14T05:59:16.009Z,2912
2017-08-14T05:59:41.492Z,2884
2017-08-14T06:00:06.953Z,2872
2017-08-14T06:00:32.435Z,2844
2017-08-14T06:00:57.904Z,2788
2017-08-14T06:01:23.322Z,2664
2017-08-14T06:01:48.785Z,2552
2017-08-14T06:02:14.229Z,2520
2017-08-14T06:02:39.710Z,2512
2017-08-14T06:03:05.187Z,2552
2017-08-14T06:03:30.606Z,2616
2017-08-14T06:03:56.093Z,2660
2017-08-14T06:04:21.569Z,2824
2017-08-14T06:04:46.994Z,2988
2017-08-14T06:05:12.449Z,3052
2017-08-14T06:05:37.949Z,3072
2017-08-14T06:06:03.425Z,3064
2017-08-14T06:06:28.893Z,3064
2017-08-14T06:06:54.375Z,3060
2017-08-14T06:07:19.820Z,3056
2017-08-14T06:07:45.270Z,3076
2017-08-14T06:08:10.743Z,3096
2017-08-14T06:08:36.228Z,3112
2017-08-14T06:09:01.671Z,2976
2017-08-14T06:09:27.099Z,2748
2017-08-14T06:09:52.569Z,2812
2017-08-14T06:10:18.031Z,3020
2017-08-14T06:10:43.514Z,3036
2017-08-14T06:11:09.012Z,2940
2017-08-14T06:11:34.430Z,2896
2017-08-14T06:11:59.867Z,2868
2017-08-14T06:12:25.321Z,2832
2017-08-14T06:12:50.783Z,2864
2017-08-14T06:13:16.239Z,2960
2017-08-14T06:13:41.692Z,3040
2017-08-14T06:14:07.185Z,3160
2017-08-14T06:14:32.613Z,3292
2017-08-14T06:14:58.053Z,3420
2017-08-14T06:15:23.523Z,3580
2017-08-14T06:15:49.011Z,3640
2017-08-14T06:16:14.481Z,3592
2017-08-14T06:16:39.943Z,3520
2017-08-14T06:17:05.411Z,3652
2017-08-14T06:17:30.865Z,4624
2017-08-14T06:17:56.308Z,6480
2017-08-14T06:18:21.756Z,8432
2017-08-14T06:18:47.217Z,10340
2017-08-14T06:19:12.685Z,12284
2017-08-14T06:19:38.127Z,14144
2017-08-14T06:20:03.572Z,16032
2017-08-14T06:20:29.060Z,17344
2017-08-14T06:20:54.512Z,17888
2017-08-14T06:21:19.965Z,18304
2017-08-14T06:21:45.428Z,18208
2017-08-14T06:22:10.899Z,17888
2017-08-14T06:22:36.341Z,17728
2017-08-14T06:23:01.824Z,17440
2017-08-14T06:23:27.280Z,17056
2017-08-14T06:23:52.729Z,16928
2017-08-14T06:24:18.213Z,17184
2017-08-14T06:24:43.665Z,17792
2017-08-14T06:25:09.183Z,18144
2017-08-14T06:25:34.602Z,17856
2017-08-14T06:26:00.044Z,15584
2017-08-14T06:26:25.519Z,14688
2017-08-14T06:26:51.005Z,12472
2017-08-14T06:27:16.462Z,9716
2017-08-14T06:27:41.890Z,7528
2017-08-14T06:28:07.376Z,5356
2017-08-14T06:28:32.796Z,4244
2017-08-14T06:28:58.251Z,3956
2017-08-14T06:29:23.716Z,3824
2017-08-14T06:29:49.245Z,3744
2017-08-14T06:30:14.692Z,3696
2017-08-14T06:30:40.160Z,3664
2017-08-14T06:31:05.643Z,3632
2017-08-14T06:31:31.091Z,3616
2017-08-14T06:31:56.564Z,3616
2017-08-14T06:32:22.058Z,3616
2017-08-14T06:32:47.465Z,3608
2017-08-14T06:33:12.950Z,3592
2017-08-14T06:33:38.526Z,3504
2017-08-14T06:34:03.878Z,3468
2017-08-14T06:34:29.345Z,3544
2017-08-14T06:34:54.804Z,3312
2017-08-14T06:35:20.249Z,3300
2017-08-14T06:35:45.721Z,3484
2017-08-14T06:36:11.146Z,3612
2017-08-14T06:36:36.642Z,3632
2017-08-14T06:37:02.077Z,3644
2017-08-14T06:37:27.552Z,3664
2017-08-14T06:37:53.017Z,3672
2017-08-14T06:38:18.497Z,3672
2017-08-14T06:38:43.937Z,3680
2017-08-14T06:39:09.395Z,3680
2017-08-14T06:39:34.819Z,3672
2017-08-14T06:40:00.293Z,3672
2017-08-14T06:40:25.758Z,3668
2017-08-14T06:40:51.270Z,3664
2017-08-14T06:41:16.720Z,3660
2017-08-14T06:41:42.191Z,3652
2017-08-14T06:42:07.631Z,3648
2017-08-14T06:42:33.077Z,3640
2017-08-14T06:42:58.542Z,3632
2017-08-14T06:43:24.004Z,3624
2017-08-14T06:43:49.439Z,3600
2017-08-14T06:44:14.872Z,3564
2017-08-14T06:44:40.368Z,3484
2017-08-14T06:45:05.857Z,3552
2017-08-14T06:45:31.278Z,3632
2017-08-14T06:45:56.749Z,3636
2017-08-14T06:46:22.173Z,3632
2017-08-14T06:46:47.641Z,3628
2017-08-14T06:47:13.081Z,3636
2017-08-14T06:47:38.563Z,3648
2017-08-14T06:48:04.042Z,3656
2017-08-14T06:48:29.449Z,3664
2017-08-14T06:48:54.894Z,3656
2017-08-14T06:49:20.362Z,3648
2017-08-14T06:49:45.814Z,3636
2017-08-14T06:50:11.274Z,3632
2017-08-14T06:50:36.715Z,3616
2017-08-14T06:51:02.159Z,3604
2017-08-14T06:51:27.621Z,3580
2017-08-14T06:51:53.140Z,3576
2017-08-14T06:52:18.588Z,3548
2017-08-14T06:52:44.036Z,3596
2017-08-14T06:53:09.502Z,3616
2017-08-14T06:53:34.943Z,3608
2017-08-14T06:54:00.411Z,3600
2017-08-14T06:54:25.934Z,3592
2017-08-14T06:54:51.372Z,3604
2017-08-14T06:55:16.880Z,3620
2017-08-14T06:55:42.325Z,3664
2017-08-14T06:56:07.789Z,3688
2017-08-14T06:56:33.292Z,3680
2017-08-14T06:56:58.737Z,3668
2017-08-14T06:57:24.166Z,3640
2017-08-14T06:57:49.623Z,3636
2017-08-14T06:58:15.122Z,3620
2017-08-14T06:58:40.524Z,3616
2017-08-14T06:59:05.956Z,3600
2017-08-14T06:59:31.438Z,3564
2017-08-14T06:59:56.869Z,3480
2017-08-14T07:00:22.406Z,3448
2017-08-14T07:00:47.887Z,3420
2017-08-14T07:01:13.354Z,3400
2017-08-14T07:01:38.782Z,3392
2017-08-14T07:02:04.352Z,3348
2017-08-14T07:02:29.750Z,3312
2017-08-14T07:02:55.184Z,3324
2017-08-14T07:03:20.630Z,3332
2017-08-14T07:03:46.155Z,3344
2017-08-14T07:04:11.675Z,3352
2017-08-14T07:04:37.079Z,3392
2017-08-14T07:05:02.600Z,3424
2017-08-14T07:05:27.975Z,3408
2017-08-14T07:05:53.457Z,3420
2017-08-14T07:06:18.879Z,3484
2017-08-14T07:06:44.356Z,3496
2017-08-14T07:07:09.854Z,3504
2017-08-14T07:07:35.311Z,3500
2017-08-14T07:08:00.788Z,3536
2017-08-14T07:08:26.228Z,3568
2017-08-14T07:08:51.729Z,3596
2017-08-14T07:09:17.148Z,3624
2017-08-14T07:09:42.634Z,3636
2017-08-14T07:10:08.063Z,3620
2017-08-14T07:10:33.541Z,3648
2017-08-14T07:10:59.016Z,3656
2017-08-14T07:11:24.458Z,3652
2017-08-14T07:11:49.920Z,3644
2017-08-14T07:12:15.367Z,3632
2017-08-14T07:12:40.804Z,3624
2017-08-14T07:13:06.268Z,3616
2017-08-14T07:13:31.762Z,3608
2017-08-14T07:13:57.208Z,3600
2017-08-14T07:14:22.695Z,3584
2017-08-14T07:14:48.155Z,3552
2017-08-14T07:15:13.624Z,3532
2017-08-14T07:15:39.053Z,3520
2017-08-14T07:16:04.523Z,3516
2017-08-14T07:16:29.950Z,3500
2017-08-14T07:16:55.419Z,3500
2017-08-14T07:17:20.879Z,3488
2017-08-14T07:17:46.398Z,3480
2017-08-14T07:18:11.895Z,3460
2017-08-14T07:18:37.305Z,3448
2017-08-14T07:19:02.829Z,3468
2017-08-14T07:19:28.282Z,3456
2017-08-14T07:19:53.717Z,3432
2017-08-14T07:20:19.186Z,3432
2017-08-14T07:20:44.657Z,3428
2017-08-14T07:21:10.131Z,3432
2017-08-14T07:21:35.608Z,3428
2017-08-14T07:22:01.052Z,3460
2017-08-14T07:22:26.542Z,3496
2017-08-14T07:22:51.999Z,3500
2017-08-14T07:23:17.448Z,3488
2017-08-14T07:23:42.926Z,3472
2017-08-14T07:24:08.381Z,3476
2017-08-14T07:24:33.852Z,3496
2017-08-14T07:24:59.300Z,3488
2017-08-14T07:25:24.754Z,3480
2017-08-14T07:25:50.246Z,3552
2017-08-14T07:26:15.643Z,3552
2017-08-14T07:26:41.098Z,3536
2017-08-14T07:27:06.589Z,3540
2017-08-14T07:27:32.049Z,3544
2017-08-14T07:27:57.519Z,3544
2017-08-14T07:28:22.964Z,3544
2017-08-14T07:28:48.449Z,3548
2017-08-14T07:29:13.911Z,3544
2017-08-14T07:29:39.348Z,3540
2017-08-14T07:30:04.816Z,3536
2017-08-14T07:30:30.269Z,3536
2017-08-14T07:30:55.710Z,3536
2017-08-14T07:31:21.190Z,3540
2017-08-14T07:31:46.644Z,3532
2017-08-14T07:32:12.168Z,3528
2017-08-14T07:32:37.619Z,3520
2017-08-14T07:33:03.069Z,3512
2017-08-14T07:33:28.559Z,3508
2017-08-14T07:33:54.108Z,3500
2017-08-14T07:34:19.480Z,3488
2017-08-14T07:34:44.926Z,3472
2017-08-14T07:35:10.376Z,3448
2017-08-14T07:35:35.841Z,3484
2017-08-14T07:36:01.321Z,3496
2017-08-14T07:36:26.739Z,3504
2017-08-14T07:36:52.198Z,3508
2017-08-14T07:37:17.645Z,3500
2017-08-14T07:37:43.113Z,3492
2017-08-14T07:38:08.557Z,3480
2017-08-14T07:38:34.002Z,3472
2017-08-14T07:38:59.488Z,3468
2017-08-14T07:39:24.949Z,3472
2017-08-14T07:39:50.405Z,3472
2017-08-14T07:40:15.851Z,3472
2017-08-14T07:40:41.341Z,3476
2017-08-14T07:41:06.802Z,3468
2017-08-14T07:41:32.244Z,3480
2017-08-14T07:41:57.694Z,3476
2017-08-14T07:42:23.129Z,3472
2017-08-14T07:42:48.585Z,3468
2017-08-14T07:43:14.045Z,3468
2017-08-14T07:43:39.517Z,3476
2017-08-14T07:44:04.968Z,3476
2017-08-14T07:44:30.408Z,3480
2017-08-14T07:44:55.884Z,3480
2017-08-14T07:45:21.365Z,3472
2017-08-14T07:45:46.796Z,3464
2017-08-14T07:46:12.282Z,3472
2017-08-14T07:46:37.721Z,3480
2017-08-14T07:47:03.161Z,3496
2017-08-14T07:47:28.629Z,3508
2017-08-14T07:47:54.092Z,3500
2017-08-14T07:48:19.550Z,3488
2017-08-14T07:48:44.978Z,3492
2017-08-14T07:49:10.425Z,3496
2017-08-14T07:49:35.881Z,3500
2017-08-14T07:50:01.343Z,3500
2017-08-14T07:50:26.814Z,3496
2017-08-14T07:50:52.228Z,3492
2017-08-14T07:51:17.700Z,3488
2017-08-14T07:51:43.152Z,3480
2017-08-14T07:52:08.605Z,3480
2017-08-14T07:52:34.103Z,3472
2017-08-14T07:52:59.563Z,3460
2017-08-14T07:53:25.012Z,3456
2017-08-14T07:53:50.496Z,3452
2017-08-14T07:54:15.940Z,3448
2017-08-14T07:54:41.348Z,3448
2017-08-14T07:55:06.805Z,3436
2017-08-14T07:55:32.292Z,3420
2017-08-14T07:55:57.704Z,3408
2017-08-14T07:56:23.230Z,3404
2017-08-14T07:56:48.659Z,3400
2017-08-14T07:57:14.129Z,3400
2017-08-14T07:57:39.593Z,3404
2017-08-14T07:58:05.069Z,3404
2017-08-14T07:58:30.503Z,3408
2017-08-14T07:58:55.954Z,3412
2017-08-14T07:59:21.399Z,3416
2017-08-14T07:59:46.870Z,3416
2017-08-14T08:00:12.294Z,3412
2017-08-14T08:00:37.748Z,3412
2017-08-14T08:01:03.227Z,3416
2017-08-14T08:01:28.673Z,3412
2017-08-14T08:01:54.152Z,3408
2017-08-14T08:02:19.757Z,3416
2017-08-14T08:02:45.226Z,3428
2017-08-14T08:03:10.719Z,3428
2017-08-14T08:03:36.175Z,3424
2017-08-14T08:04:01.615Z,3428
2017-08-14T08:04:27.074Z,3420
2017-08-14T08:04:52.766Z,3416
2017-08-14T08:05:18.015Z,3424
2017-08-14T08:05:43.447Z,3420
2017-08-14T08:06:08.905Z,3412
2017-08-14T08:06:34.410Z,3396
2017-08-14T08:06:59.833Z,3396
2017-08-14T08:07:25.331Z,3392
2017-08-14T08:07:50.798Z,3384
2017-08-14T08:08:16.235Z,3376
2017-08-14T08:08:41.665Z,3372
2017-08-14T08:09:07.182Z,3372
2017-08-14T08:09:32.625Z,3368
2017-08-14T08:09:58.098Z,3368
2017-08-14T08:10:23.544Z,3360
2017-08-14T08:10:49.005Z,3360
2017-08-14T08:11:14.463Z,3356
2017-08-14T08:11:39.926Z,3356
2017-08-14T08:12:05.382Z,3368
2017-08-14T08:12:30.859Z,3372
2017-08-14T08:12:56.339Z,3372
2017-08-14T08:13:21.785Z,3372
2017-08-14T08:13:47.252Z,3372
2017-08-14T08:14:12.715Z,3380
2017-08-14T08:14:38.200Z,3384
2017-08-14T08:15:03.636Z,3380
2017-08-14T08:15:29.137Z,3380
2017-08-14T08:15:54.743Z,3384
2017-08-14T08:16:20.216Z,3380
2017-08-14T08:16:45.826Z,3368
2017-08-14T08:17:11.188Z,3368
2017-08-14T08:17:36.769Z,3368
2017-08-14T08:18:02.327Z,3372
2017-08-14T08:18:27.761Z,3372
2017-08-14T08:18:53.253Z,3368
2017-08-14T08:19:18.680Z,3364
2017-08-14T08:19:44.163Z,3360
2017-08-14T08:20:09.635Z,3356
2017-08-14T08:20:35.067Z,3352
2017-08-14T08:21:00.525Z,3348
2017-08-14T08:21:26.022Z,3336
2017-08-14T08:21:51.483Z,3324
2017-08-14T08:22:16.940Z,3328
2017-08-14T08:22:42.430Z,3332
2017-08-14T08:23:07.835Z,3332
2017-08-14T08:23:33.375Z,3336
2017-08-14T08:23:58.773Z,3332
2017-08-14T08:24:24.231Z,3332
2017-08-14T08:24:49.683Z,3328
2017-08-14T08:25:15.178Z,3328
2017-08-14T08:25:40.614Z,3324
2017-08-14T08:26:06.115Z,3316
2017-08-14T08:26:31.586Z,3312
2017-08-14T08:26:57.083Z,3300
2017-08-14T08:27:22.512Z,3292
2017-08-14T08:27:48.002Z,3292
2017-08-14T08:28:13.478Z,3284
2017-08-14T08:28:38.901Z,3284
2017-08-14T08:29:04.350Z,3280
2017-08-14T08:29:29.811Z,3276
2017-08-14T08:29:55.272Z,3272
2017-08-14T08:30:20.733Z,3264
2017-08-14T08:30:46.173Z,3260
2017-08-14T08:31:11.627Z,3252
2017-08-14T08:31:37.097Z,3248
2017-08-14T08:32:02.544Z,3248
2017-08-14T08:32:28.029Z,3244
2017-08-14T08:32:53.464Z,3240
2017-08-14T08:33:18.930Z,3228
2017-08-14T08:33:44.397Z,3224
2017-08-14T08:34:09.849Z,3224
2017-08-14T08:34:35.306Z,3220
2017-08-14T08:35:00.744Z,3212
2017-08-14T08:35:26.194Z,3204
2017-08-14T08:35:51.640Z,3192
2017-08-14T08:36:17.138Z,3188
2017-08-14T08:36:42.629Z,3176
2017-08-14T08:37:08.091Z,3172
2017-08-14T08:37:33.528Z,3164
2017-08-14T08:37:59.016Z,3156
2017-08-14T08:38:24.456Z,3148
2017-08-14T08:38:49.911Z,3148
2017-08-14T08:39:15.347Z,3140
2017-08-14T08:39:40.852Z,3128
2017-08-14T08:40:06.283Z,3120
2017-08-14T08:40:31.741Z,3112
2017-08-14T08:40:57.202Z,3104
2017-08-14T08:41:22.674Z,3096
2017-08-14T08:41:48.197Z,3080
2017-08-14T08:42:13.672Z,3060
2017-08-14T08:42:39.168Z,3048
2017-08-14T08:43:04.646Z,3036
2017-08-14T08:43:30.171Z,3036
2017-08-14T08:43:55.543Z,3028
2017-08-14T08:44:21.010Z,3024
2017-08-14T08:44:46.465Z,3020
2017-08-14T08:45:11.954Z,3020
2017-08-14T08:45:37.373Z,3020
2017-08-14T08:46:02.847Z,3032
2017-08-14T08:46:28.339Z,3036
2017-08-14T08:46:53.776Z,3032
2017-08-14T08:47:19.255Z,3036
2017-08-14T08:47:44.752Z,3032
2017-08-14T08:48:10.237Z,3036
2017-08-14T08:48:35.682Z,3040
2017-08-14T08:49:01.137Z,3044
2017-08-14T08:49:26.616Z,3044
2017-08-14T08:49:52.029Z,3048
2017-08-14T08:50:17.494Z,3056
2017-08-14T08:50:42.973Z,3052
2017-08-14T08:51:08.437Z,3052
2017-08-14T08:51:33.946Z,3048
2017-08-14T08:51:59.401Z,3044
2017-08-14T08:52:24.831Z,3028
2017-08-14T08:52:50.302Z,3020
2017-08-14T08:53:15.785Z,3020
2017-08-14T08:53:41.232Z,3016
2017-08-14T08:54:06.811Z,3012
2017-08-14T08:54:32.221Z,3004
2017-08-14T08:54:57.638Z,3004
2017-08-14T08:55:23.084Z,3004
2017-08-14T08:55:48.582Z,3008
2017-08-14T08:56:14.015Z,3000
2017-08-14T08:56:39.474Z,2984
2017-08-14T08:57:04.926Z,2968
2017-08-14T08:57:30.414Z,2964
2017-08-14T08:57:55.895Z,2968
2017-08-14T08:58:21.365Z,2972
2017-08-14T08:58:46.880Z,2972
2017-08-14T08:59:12.272Z,2968
2017-08-14T08:59:37.765Z,2968
2017-08-14T09:00:03.234Z,2972
2017-08-14T09:00:28.709Z,2972
2017-08-14T09:00:54.206Z,2960
2017-08-14T09:01:19.633Z,2948
2017-08-14T09:01:45.097Z,2936
2017-08-14T09:02:10.552Z,2924
2017-08-14T09:02:36.029Z,2920
2017-08-14T09:03:01.480Z,2920
2017-08-14T09:03:26.957Z,2912
2017-08-14T09:03:52.396Z,2904
2017-08-14T09:04:17.897Z,2904
2017-08-14T09:04:43.357Z,2896
2017-08-14T09:05:08.825Z,2896
2017-08-14T09:05:34.264Z,2884
2017-08-14T09:05:59.763Z,2876
2017-08-14T09:06:25.188Z,2872
2017-08-14T09:06:50.666Z,2872
2017-08-14T09:07:16.116Z,2868
2017-08-14T09:07:41.598Z,2864
2017-08-14T09:08:07.076Z,2864
2017-08-14T09:08:32.460Z,2860
2017-08-14T09:08:57.949Z,2852
2017-08-14T09:09:23.394Z,2840
2017-08-14T09:09:48.862Z,2832
2017-08-14T09:10:14.331Z,2824
2017-08-14T09:10:39.781Z,2816
2017-08-14T09:11:05.223Z,2812
2017-08-14T09:11:30.709Z,2808
2017-08-14T09:11:56.178Z,2808
2017-08-14T09:12:21.612Z,2816
2017-08-14T09:12:47.051Z,2824
2017-08-14T09:13:12.557Z,2828
2017-08-14T09:13:38.018Z,2828
2017-08-14T09:14:03.489Z,2820
2017-08-14T09:14:28.981Z,2820
2017-08-14T09:14:54.457Z,2820
2017-08-14T09:15:20.000Z,2828
2017-08-14T09:15:45.421Z,2828
2017-08-14T09:16:10.878Z,2832
2017-08-14T09:16:36.335Z,2824
2017-08-14T09:17:01.795Z,2824
2017-08-14T09:17:27.279Z,2840
2017-08-14T09:17:52.756Z,2852
2017-08-14T09:18:18.232Z,2860
2017-08-14T09:18:43.706Z,2860
2017-08-14T09:19:09.145Z,2856
2017-08-14T09:19:34.587Z,2860
2017-08-14T09:20:00.066Z,2864
2017-08-14T09:20:25.523Z,2864
2017-08-14T09:20:50.965Z,2864
2017-08-14T09:21:16.431Z,2864
2017-08-14T09:21:41.885Z,2860
2017-08-14T09:22:07.402Z,2852
2017-08-14T09:22:32.890Z,2840
2017-08-14T09:22:58.383Z,2832
2017-08-14T09:23:23.831Z,2824
2017-08-14T09:23:49.310Z,2812
2017-08-14T09:24:14.806Z,2796
2017-08-14T09:24:40.195Z,2788
2017-08-14T09:25:05.775Z,2780
2017-08-14T09:25:31.255Z,2776
2017-08-14T09:25:56.670Z,2776
2017-08-14T09:26:22.126Z,2780
2017-08-14T09:26:47.592Z,2780
2017-08-14T09:27:13.050Z,2776
2017-08-14T09:27:38.516Z,2768
2017-08-14T09:28:04.101Z,2768
2017-08-14T09:28:29.537Z,2764
2017-08-14T09:28:55.015Z,2760
2017-08-14T09:29:20.507Z,2760
2017-08-14T09:29:45.986Z,2752
2017-08-14T09:30:11.504Z,2744
2017-08-14T09:30:36.993Z,2732
2017-08-14T09:31:02.489Z,2716
2017-08-14T09:31:27.960Z,2712
2017-08-14T09:31:53.384Z,2708
2017-08-14T09:32:18.873Z,2712
2017-08-14T09:32:44.359Z,2712
2017-08-14T09:33:09.851Z,2716
2017-08-14T09:33:35.303Z,2712
2017-08-14T09:34:00.748Z,2704
2017-08-14T09:34:26.221Z,2696
2017-08-14T09:34:51.684Z,2696
2017-08-14T09:35:17.101Z,2688
2017-08-14T09:35:42.566Z,2676
2017-08-14T09:36:08.043Z,2672
2017-08-14T09:36:33.457Z,2668
2017-08-14T09:36:58.943Z,2668
2017-08-14T09:37:24.403Z,2668
2017-08-14T09:37:49.866Z,2660
2017-08-14T09:38:15.297Z,2640
2017-08-14T09:38:40.738Z,2616
2017-08-14T09:39:06.253Z,2604
2017-08-14T09:39:31.718Z,2608
2017-08-14T09:39:57.256Z,2608
2017-08-14T09:40:22.693Z,2600
2017-08-14T09:40:48.168Z,2588
2017-08-14T09:41:13.683Z,2576
2017-08-14T09:41:39.089Z,2576
2017-08-14T09:42:04.609Z,2592
2017-08-14T09:42:30.080Z,2596
2017-08-14T09:42:55.547Z,2608
2017-08-14T09:43:21.005Z,2604
2017-08-14T09:43:46.463Z,2600
2017-08-14T09:44:11.902Z,2600
2017-08-14T09:44:37.408Z,2616
2017-08-14T09:45:02.866Z,2612
2017-08-14T09:45:28.319Z,2608
2017-08-14T09:45:53.785Z,2592
2017-08-14T09:46:19.242Z,2584
2017-08-14T09:46:44.704Z,2576
2017-08-14T09:47:10.158Z,2572
2017-08-14T09:47:35.633Z,2572
2017-08-14T09:48:01.073Z,2584
2017-08-14T09:48:26.549Z,2592
2017-08-14T09:48:52.028Z,2604
2017-08-14T09:49:17.483Z,2612
2017-08-14T09:49:42.914Z,2612
2017-08-14T09:50:08.377Z,2608
2017-08-14T09:50:33.853Z,2604
2017-08-14T09:50:59.319Z,2596
2017-08-14T09:51:24.767Z,2576
2017-08-14T09:51:50.245Z,2560
2017-08-14T09:52:15.702Z,2548
2017-08-14T09:52:41.143Z,2532
2017-08-14T09:53:06.628Z,2520
2017-08-14T09:53:32.114Z,2520
2017-08-14T09:53:57.543Z,2528
2017-08-14T09:54:23.016Z,2548
2017-08-14T09:54:48.488Z,2560
2017-08-14T09:55:13.923Z,2564
2017-08-14T09:55:39.409Z,2572
2017-08-14T09:56:04.957Z,2576
2017-08-14T09:56:30.436Z,2568
2017-08-14T09:56:55.889Z,2556
2017-08-14T09:57:21.363Z,2532
2017-08-14T09:57:46.799Z,2512
2017-08-14T09:58:12.281Z,2484
2017-08-14T09:58:37.752Z,2452
2017-08-14T09:59:03.232Z,2432
2017-08-14T09:59:28.668Z,2428
2017-08-14T09:59:54.160Z,2416
2017-08-14T10:00:19.597Z,2404
2017-08-14T10:00:45.072Z,2404
2017-08-14T10:01:10.549Z,2412
2017-08-14T10:01:35.978Z,2416
2017-08-14T10:02:01.461Z,2416
2017-08-14T10:02:26.877Z,2420
2017-08-14T10:02:52.344Z,2412
2017-08-14T10:03:17.844Z,2404
2017-08-14T10:03:43.251Z,2388
2017-08-14T10:04:08.737Z,2380
2017-08-14T10:04:34.165Z,2364
2017-08-14T10:04:59.620Z,2352
2017-08-14T10:05:25.116Z,2344
2017-08-14T10:05:50.557Z,2336
2017-08-14T10:06:16.008Z,2328
2017-08-14T10:06:41.487Z,2312
2017-08-14T10:07:06.955Z,2292
2017-08-14T10:07:32.390Z,2280
2017-08-14T10:07:57.840Z,2280
2017-08-14T10:08:23.339Z,2284
2017-08-14T10:08:48.798Z,2284
2017-08-14T10:09:14.213Z,2272
2017-08-14T10:09:39.675Z,2252
2017-08-14T10:10:05.129Z,2236
2017-08-14T10:10:30.654Z,2236
2017-08-14T10:10:56.108Z,2240
2017-08-14T10:11:21.557Z,2244
2017-08-14T10:11:46.995Z,2248
2017-08-14T10:12:12.455Z,2236
2017-08-14T10:12:37.944Z,2244
2017-08-14T10:13:03.383Z,2256
2017-08-14T10:13:28.861Z,2264
2017-08-14T10:13:54.315Z,2268
2017-08-14T10:14:19.769Z,2256
2017-08-14T10:14:45.236Z,2256
2017-08-14T10:15:10.681Z,2260
2017-08-14T10:15:36.135Z,2268
2017-08-14T10:16:01.575Z,2292
2017-08-14T10:16:27.052Z,2308
2017-08-14T10:16:52.516Z,2316
2017-08-14T10:17:18.014Z,2324
2017-08-14T10:17:43.445Z,2328
2017-08-14T10:18:08.892Z,2344
2017-08-14T10:18:34.354Z,2352
2017-08-14T10:18:59.799Z,2372
2017-08-14T10:19:25.256Z,2380
2017-08-14T10:19:50.753Z,2368
2017-08-14T10:20:16.206Z,2356
2017-08-14T10:20:41.672Z,2348
2017-08-14T10:21:07.120Z,2328
2017-08-14T10:21:32.606Z,2312
2017-08-14T10:21:58.119Z,2304
2017-08-14T10:22:23.634Z,2292
2017-08-14T10:22:49.076Z,2280
2017-08-14T10:23:14.578Z,2276
2017-08-14T10:23:40.018Z,2264
2017-08-14T10:24:05.468Z,2260
2017-08-14T10:24:30.907Z,2264
2017-08-14T10:24:56.390Z,2260
2017-08-14T10:25:21.862Z,2264
2017-08-14T10:25:47.296Z,2260
2017-08-14T10:26:12.760Z,2260
2017-08-14T10:26:38.266Z,2264
2017-08-14T10:27:03.687Z,2276
2017-08-14T10:27:29.144Z,2284
2017-08-14T10:27:54.644Z,2292
2017-08-14T10:28:20.095Z,2272
2017-08-14T10:28:45.532Z,2252
2017-08-14T10:29:11.032Z,2212
2017-08-14T10:29:36.465Z,2180
2017-08-14T10:30:01.925Z,2152
2017-08-14T10:30:27.364Z,2132
2017-08-14T10:30:52.854Z,2136
2017-08-14T10:31:18.316Z,2140
2017-08-14T10:31:43.743Z,2132
2017-08-14T10:32:09.217Z,2124
2017-08-14T10:32:34.697Z,2128
2017-08-14T10:33:00.159Z,2132
2017-08-14T10:33:25.630Z,2124
2017-08-14T10:33:51.099Z,2124
2017-08-14T10:34:16.558Z,2132
2017-08-14T10:34:42.098Z,2128
2017-08-14T10:35:07.533Z,2120
2017-08-14T10:35:32.985Z,2112
2017-08-14T10:35:58.494Z,2104
2017-08-14T10:36:23.912Z,2104
2017-08-14T10:36:49.390Z,2108
2017-08-14T10:37:14.880Z,2116
2017-08-14T10:37:40.315Z,2120
2017-08-14T10:38:05.826Z,2132
2017-08-14T10:38:31.326Z,2148
2017-08-14T10:38:56.756Z,2156
2017-08-14T10:39:22.193Z,2172
2017-08-14T10:39:47.663Z,2184
2017-08-14T10:40:13.120Z,2196
2017-08-14T10:40:38.582Z,2200
2017-08-14T10:41:04.059Z,2212
2017-08-14T10:41:29.553Z,2220
2017-08-14T10:41:54.997Z,2224
2017-08-14T10:42:20.470Z,2220
2017-08-14T10:42:45.926Z,2208
2017-08-14T10:43:11.423Z,2188
2017-08-14T10:43:36.867Z,2160
2017-08-14T10:44:02.336Z,2148
2017-08-14T10:44:27.782Z,2136
2017-08-14T10:44:53.308Z,2132
2017-08-14T10:45:18.741Z,2128
2017-08-14T10:45:44.194Z,2132
2017-08-14T10:46:09.645Z,2128
2017-08-14T10:46:35.105Z,2124
2017-08-14T10:47:00.560Z,2120
2017-08-14T10:47:26.017Z,2116
2017-08-14T10:47:51.477Z,2116
2017-08-14T10:48:16.920Z,2104
2017-08-14T10:48:42.408Z,2096
2017-08-14T10:49:07.841Z,2092
2017-08-14T10:49:33.311Z,2084
2017-08-14T10:49:58.801Z,2080
2017-08-14T10:50:24.270Z,2072
2017-08-14T10:50:49.725Z,2060
2017-08-14T10:51:15.184Z,2052
2017-08-14T10:51:40.655Z,2036
2017-08-14T10:52:06.090Z,2020
2017-08-14T10:52:31.583Z,2020
2017-08-14T10:52:57.037Z,2004
2017-08-14T10:53:22.484Z,1996
2017-08-14T10:53:47.965Z,1992
2017-08-14T10:54:13.379Z,1984
2017-08-14T10:54:38.843Z,1976
2017-08-14T10:55:04.351Z,1976
2017-08-14T10:55:29.789Z,1972
2017-08-14T10:55:55.239Z,1968
2017-08-14T10:56:20.688Z,1960
2017-08-14T10:56:46.212Z,1952
2017-08-14T10:57:11.635Z,1964
2017-08-14T10:57:37.112Z,1980
2017-08-14T10:58:02.559Z,1976
2017-08-14T10:58:28.030Z,1988
2017-08-14T10:58:53.499Z,1996
2017-08-14T10:59:18.943Z,1996
2017-08-14T10:59:44.443Z,2004
2017-08-14T11:00:09.904Z,2016
2017-08-14T11:00:35.390Z,2024
2017-08-14T11:01:00.849Z,2036
2017-08-14T11:01:26.318Z,2044
2017-08-14T11:01:51.750Z,2064
2017-08-14T11:02:17.212Z,2096
2017-08-14T11:02:42.690Z,2176
2017-08-14T11:03:08.138Z,2248
2017-08-14T11:03:33.585Z,2332
2017-08-14T11:03:59.048Z,2300
2017-08-14T11:04:24.478Z,2252
2017-08-14T11:04:49.974Z,2236
2017-08-14T11:05:15.422Z,2260
2017-08-14T11:05:40.855Z,2340
2017-08-14T11:06:06.306Z,2528
2017-08-14T11:06:31.765Z,2732
2017-08-14T11:06:57.309Z,2864
2017-08-14T11:07:22.729Z,2816
2017-08-14T11:07:48.221Z,2608
2017-08-14T11:08:13.646Z,2408
2017-08-14T11:08:39.135Z,2252
2017-08-14T11:09:04.573Z,2164
2017-08-14T11:09:30.030Z,2120
2017-08-14T11:09:55.525Z,2088